Main page
Satellite images 15-day forecastsClimateMarine weather Cyclones Lightning AirportsFAQ Newsletter About
Weather : Europe Africa North America South America Asia Australia-Oceania Others
Languages Contact

Doha, Qatar

latitude: 25-15N, longitude: 051-34E, elevation: 11 m


METAR: OTBD 221130Z 09006KT CAVOK 28/18 Q1015 NOSIG
TAF: OTBD 221100Z 2212/2318 09008KT 9999 FEW030 SCT100 BECMG 2217/2219 16009KT PROB40 TEMPO 2223/2305 5000 HZ PROB30 TEMPO 2301/2304 3000 BR

Time: 15:40 (12:40 UTC)

Current weather observation

The report was made 1 hour and 10 minutes ago, at 11:30 UTC
Wind 6 kt from the East
Temperature 28°C
Humidity 55%
Pressure 1015 hPa
Visibility 10 km or more
no clouds below 1500 m and no cumulonimbus

Change units

Forecast

The report was made 1 hour and 40 minutes ago, at 11:00 UTC
Forecast valid from 22 at 12 UTC to 23 at 18 UTC
Wind 8 kt from the East
Visibility 10 km or more
Few clouds at a height of 3000 ft
Scattered clouds at a height of 10000 ft
Becoming
from 22 at 17 UTC to 22 at 19 UTC
Wind 9 kt from the South/Southeast
Probability 40% :
Temporary
from 22 at 23 UTC to 23 at 05 UTC
Visibility: 5000 m
haze
Probability 30% :
Temporary
from 23 at 01 UTC to 23 at 04 UTC
Visibility: 3000 m
mist
The information on this site is subject to a disclaimer
Weather : Europe Africa North America South America Asia Australia-Oceania Others
Satellite images 15-day forecastsClimateMarine weather Cyclones Lightning AirportsFAQ Languages Contact Newsletter About